Time;durP1;ratioP1;P1;durP2;ratioP2;P2;SDS_P1;SDS_P2;PMS_P1;PMS_P2;Temp;Humidity;BMP_temperature;BMP_pressure;BME280_temperature;BME280_humidity;BME280_pressure;Samples;Min_cycle;Max_cycle;Signal;HPM_P1;HPM_P2
2024/01/05 00:01:02;;;;;;;15.80;15.30;;;;;;;-141.02;100.00;82766.69;5116094;28;20292;-71
2024/01/05 00:03:29;;;;;;;15.50;15.00;;;;;;;-141.02;100.00;82269.47;5115710;28;20204;-72
2024/01/05 00:05:58;;;;;;;15.67;15.17;;;;;;;-141.02;100.00;82020.88;5115694;28;20229;-71
2024/01/05 00:08:25;;;;;;;15.43;14.93;;;;;;;-141.02;100.00;82020.88;5115628;28;20284;-71
2024/01/05 00:10:52;;;;;;;15.83;15.33;;;;;;;-141.02;100.00;81772.31;5116280;28;20258;-72
2024/01/05 00:13:18;;;;;;;15.40;14.90;;;;;;;-141.02;100.00;81523.75;5115888;28;20193;-72
2024/01/05 00:15:45;;;;;;;14.70;14.20;;;;;;;-141.02;100.00;81275.25;5115301;28;20316;-71
2024/01/05 00:18:12;;;;;;;14.37;13.87;;;;;;;-141.02;100.00;81026.72;5115517;28;20203;-71
2024/01/05 00:20:39;;;;;;;15.00;14.50;;;;;;;-141.02;100.00;81026.72;5115671;28;20200;-71
2024/01/05 00:23:07;;;;;;;14.70;14.20;;;;;;;-141.02;100.00;80778.25;5115676;28;20232;-72
2024/01/05 00:25:34;;;;;;;13.70;13.30;;;;;;;-141.02;100.00;80778.25;5115365;28;20193;-72
2024/01/05 00:28:01;;;;;;;14.10;13.70;;;;;;;-141.02;100.00;80529.75;5115173;28;20606;-71
2024/01/05 00:30:29;;;;;;;14.67;14.17;;;;;;;-141.02;100.00;80281.31;5115305;28;20203;-72
2024/01/05 00:32:56;;;;;;;14.20;13.80;;;;;;;-141.02;100.00;80281.31;5115160;28;20663;-71
2024/01/05 00:35:23;;;;;;;14.50;14.07;;;;;;;-141.02;100.00;79784.44;5115405;28;20233;-72
2024/01/05 00:37:50;;;;;;;14.43;14.03;;;;;;;-141.02;100.00;79536.03;5114552;28;20732;-71
2024/01/05 00:40:18;;;;;;;13.20;12.80;;;;;;;-141.02;100.00;79287.66;5115334;28;20625;-71
2024/01/05 00:42:45;;;;;;;14.03;13.63;;;;;;;-141.02;100.00;78790.94;5115040;28;20280;-72
2024/01/05 00:45:12;;;;;;;14.30;13.90;;;;;;;-141.02;100.00;78790.94;5115297;28;20272;-71
2024/01/05 00:47:40;;;;;;;14.67;14.17;;;;;;;-141.02;100.00;78790.94;5115162;28;20322;-71
2024/01/05 00:50:08;;;;;;;13.87;13.47;;;;;;;-141.02;100.00;78790.94;5114795;28;20197;-71
2024/01/05 00:52:35;;;;;;;12.53;12.13;;;;;;;-141.02;100.00;78542.63;5115362;28;20189;-71
2024/01/05 00:55:02;;;;;;;13.80;13.40;;;;;;;-141.02;100.00;77549.47;5115029;28;20207;-72
2024/01/05 00:57:31;;;;;;;14.13;13.73;;;;;;;-141.02;100.00;76308.44;5114707;28;20666;-71
2024/01/05 00:59:58;;;;;;;12.70;12.30;;;;;;;-141.02;100.00;75067.88;5114979;28;20219;-71
2024/01/05 01:02:25;;;;;;;11.90;11.60;;;;;;;-141.02;100.00;74571.75;5114507;28;20200;-72
2024/01/05 01:04:52;;;;;;;12.20;11.80;;;;;;;-141.02;100.00;73083.88;5114489;28;20201;-72
2024/01/05 01:07:19;;;;;;;12.60;12.20;;;;;;;-141.02;100.00;71596.63;5114309;28;20607;-72
2024/01/05 01:09:45;;;;;;;12.53;12.13;;;;;;;-141.02;100.00;70357.75;5114449;28;20201;-72
2024/01/05 01:12:12;;;;;;;12.60;12.20;;;;;;;-141.02;100.00;69119.34;5114713;28;20201;-73
2024/01/05 01:14:41;;;;;;;12.80;12.40;;;;;;;-141.02;100.00;66891.31;5114312;28;20225;-73
2024/01/05 01:17:08;;;;;;;13.50;13.10;;;;;;;-141.02;100.00;64664.72;5114597;28;20276;-73
2024/01/05 01:19:35;;;;;;;13.43;13.03;;;;;;;-141.02;100.00;63181.16;5114543;28;20193;-73
2024/01/05 01:22:01;;;;;;;13.43;13.03;;;;;;;-141.02;100.00;62933.94;5114514;28;20223;-74
2024/01/05 01:24:28;;;;;;;12.73;12.33;;;;;;;-141.02;100.00;62439.59;5114224;28;20201;-73
2024/01/05 01:26:55;;;;;;;13.83;13.43;;;;;;;-141.02;100.00;62192.44;5114008;28;20267;-74
2024/01/05 01:29:23;;;;;;;13.10;12.70;;;;;;;-141.02;100.00;61945.31;5114399;28;20197;-73
2024/01/05 01:31:51;;;;;;;12.13;11.73;;;;;;;-141.02;100.00;61945.31;5114260;28;20193;-73
2024/01/05 01:34:18;;;;;;;11.77;11.47;;;;;;;-141.02;100.00;62686.75;5114210;28;20219;-73
2024/01/05 01:36:45;;;;;;;11.93;11.63;;;;;;;-141.02;100.00;62933.94;5114207;28;20199;-73
2024/01/05 01:39:12;;;;;;;11.70;11.40;;;;;;;-141.02;100.00;63428.38;5113752;28;20577;-73
2024/01/05 01:41:39;;;;;;;11.33;11.03;;;;;;;-141.02;100.00;62933.94;5113774;28;20280;-73
2024/01/05 01:44:05;;;;;;;11.07;10.77;;;;;;;-141.02;100.00;63181.16;5113723;28;20280;-73
2024/01/05 01:46:33;;;;;;;10.87;10.57;;;;;;;-141.02;100.00;63675.59;5113918;28;20201;-73
2024/01/05 01:49:02;;;;;;;10.30;10.00;;;;;;;-141.02;100.00;63181.16;5113080;28;20197;-73
2024/01/05 01:51:31;;;;;;;10.40;10.10;;;;;;;-141.02;100.00;63181.16;5114763;28;20196;-73
2024/01/05 01:53:59;;;;;;;10.27;9.97;;;;;;;-141.02;100.00;63428.38;5113556;28;20193;-73
2024/01/05 01:56:26;;;;;;;9.53;9.23;;;;;;;-141.02;100.00;63428.38;5113497;28;20196;-73
2024/01/05 01:58:53;;;;;;;9.63;9.33;;;;;;;-141.02;100.00;63181.16;5113790;28;20284;-73
2024/01/05 02:01:21;;;;;;;9.60;9.30;;;;;;;-141.02;100.00;63428.38;5113681;28;20220;-73
2024/01/05 02:03:48;;;;;;;9.40;9.10;;;;;;;-141.02;100.00;63428.38;5113696;28;20197;-73
2024/01/05 02:06:16;;;;;;;9.23;9.00;;;;;;;-141.02;100.00;63181.16;5113289;28;20193;-73
2024/01/05 02:08:44;;;;;;;9.07;8.87;;;;;;;-141.02;100.00;63675.59;5113125;28;20224;-73
2024/01/05 02:11:11;;;;;;;9.10;8.90;;;;;;;-141.02;100.00;63181.16;5113480;28;20197;-73
2024/01/05 02:13:38;;;;;;;8.90;8.70;;;;;;;-141.02;100.00;63675.59;5113144;28;20199;-73
2024/01/05 02:16:05;;;;;;;9.30;9.00;;;;;;;-141.02;100.00;63181.16;5113081;28;20229;-73
2024/01/05 02:18:32;;;;;;;9.30;9.00;;;;;;;-141.02;100.00;62933.94;5113402;28;20193;-73
2024/01/05 02:21:01;;;;;;;8.93;8.73;;;;;;;-141.02;100.00;63428.38;5113115;28;20650;-73
2024/01/05 02:23:30;;;;;;;9.30;9.00;;;;;;;-141.02;100.00;62686.75;5113079;28;20200;-73
2024/01/05 02:25:58;;;;;;;9.00;8.80;;;;;;;-141.02;100.00;62686.75;5113598;28;20205;-74
2024/01/05 02:28:26;;;;;;;11.00;10.70;;;;;;;-141.02;100.00;63181.16;5112845;28;20705;-73
2024/01/05 02:30:55;;;;;;;11.13;10.83;;;;;;;-141.02;100.00;62439.59;5112879;28;20650;-74
2024/01/05 02:33:22;;;;;;;9.70;9.40;;;;;;;-141.02;100.00;62439.59;5112874;28;20193;-74
2024/01/05 02:35:49;;;;;;;10.23;9.93;;;;;;;-141.02;100.00;61451.13;5113093;28;20199;-73
2024/01/05 02:38:16;;;;;;;9.47;9.17;;;;;;;-141.02;100.00;61451.13;5113026;28;20270;-73
2024/01/05 02:40:45;;;;;;;9.03;8.83;;;;;;;-141.02;100.00;61698.22;5112680;28;20648;-74
2024/01/05 02:43:12;;;;;;;9.60;9.30;;;;;;;-141.02;100.00;61451.13;5112681;28;20204;-74
2024/01/05 02:45:39;;;;;;;9.50;9.20;;;;;;;-141.02;100.00;60957.00;5112940;28;20221;-74
2024/01/05 02:48:07;;;;;;;9.70;9.40;;;;;;;-141.02;100.00;60709.94;5112864;28;20307;-73
2024/01/05 02:50:34;;;;;;;9.40;9.10;;;;;;;-141.02;100.00;60709.94;5112846;28;20189;-74
2024/01/05 02:53:01;;;;;;;9.40;9.10;;;;;;;-141.02;100.00;60215.94;5112919;28;20272;-74
2024/01/05 02:55:28;;;;;;;8.93;8.73;;;;;;;-141.02;100.00;60462.94;5112858;28;20224;-73
2024/01/05 02:57:56;;;;;;;9.27;8.97;;;;;;;-141.02;100.00;60462.94;5112852;28;20275;-74
2024/01/05 03:00:23;;;;;;;9.00;8.80;;;;;;;-141.02;100.00;60462.94;5112611;28;20284;-74
2024/01/05 03:02:50;;;;;;;9.23;8.93;;;;;;;-141.02;100.00;60215.94;5112427;28;20549;-74
2024/01/05 03:05:17;;;;;;;8.87;8.67;;;;;;;-141.02;100.00;60462.94;5112727;28;20250;-74
2024/01/05 03:07:44;;;;;;;9.07;8.87;;;;;;;-141.02;100.00;60709.94;5112610;28;20224;-74
2024/01/05 03:10:11;;;;;;;9.40;9.10;;;;;;;-141.02;100.00;60462.94;5112405;28;20559;-74
2024/01/05 03:12:38;;;;;;;9.40;9.10;;;;;;;-141.02;100.00;60709.94;5112270;28;20655;-74
2024/01/05 03:15:07;;;;;;;8.90;8.70;;;;;;;-141.02;100.00;60462.94;5112155;28;20229;-74
2024/01/05 03:17:34;;;;;;;9.60;9.30;;;;;;;-141.02;100.00;60709.94;5112279;28;20233;-74
2024/01/05 03:20:02;;;;;;;8.90;8.70;;;;;;;-141.02;100.00;60709.94;5112287;28;20659;-74
2024/01/05 03:22:29;;;;;;;9.60;9.30;;;;;;;-141.02;100.00;60709.94;5112276;28;20205;-74
2024/01/05 03:24:56;;;;;;;9.60;9.30;;;;;;;-141.02;100.00;60709.94;5112594;28;20189;-74
2024/01/05 03:27:22;;;;;;;9.50;9.20;;;;;;;-141.02;100.00;60215.94;5112487;28;20303;-74
2024/01/05 03:29:50;;;;;;;10.10;9.80;;;;;;;-141.02;100.00;59968.94;5112467;28;20199;-74
2024/01/05 03:32:18;;;;;;;10.13;9.83;;;;;;;-141.02;100.00;59721.97;5112467;28;20280;-75
2024/01/05 03:34:45;;;;;;;10.43;10.13;;;;;;;-141.02;100.00;59721.97;5112088;28;20197;-74
2024/01/05 03:37:12;;;;;;;10.73;10.43;;;;;;;-141.02;100.00;59228.09;5112162;28;20232;-75
2024/01/05 03:39:39;;;;;;;10.80;10.50;;;;;;;-141.02;100.00;58981.19;5112458;28;20193;-75
2024/01/05 03:42:06;;;;;;;10.53;10.23;;;;;;;-141.02;100.00;58734.28;5112317;28;20193;-76
2024/01/05 03:44:33;;;;;;;10.77;10.47;;;;;;;-141.02;100.00;57500.06;5112383;28;20224;-75
2024/01/05 03:47:00;;;;;;;10.87;10.57;;;;;;;-141.02;100.00;57006.53;5112295;28;20224;-75
2024/01/05 03:49:28;;;;;;;11.07;10.77;;;;;;;-141.02;100.00;56008.06;5112227;28;20240;-76
2024/01/05 03:51:55;;;;;;;11.80;11.43;;;;;;;-141.02;100.00;55639.97;5112218;28;20284;-75
2024/01/05 03:54:22;;;;;;;12.20;11.80;;;;;;;-141.02;100.00;55653.47;5111960;28;20289;-75
2024/01/05 03:56:49;;;;;;;10.80;10.50;;;;;;;-141.02;100.00;54474.31;5111958;28;20687;-75
2024/01/05 03:59:16;;;;;;;10.90;10.60;;;;;;;-141.02;100.00;54158.41;5111869;28;20568;-76
2024/01/05 04:01:44;;;;;;;10.70;10.40;;;;;;;-141.02;100.00;54682.38;5111933;28;20280;-76
2024/01/05 04:04:11;;;;;;;10.00;9.70;;;;;;;-141.02;100.00;54849.97;5112251;28;20265;-76
2024/01/05 04:06:39;;;;;;;10.50;10.20;;;;;;;-141.02;100.00;54551.38;5112104;28;20204;-76
2024/01/05 04:09:09;;;;;;;10.77;10.47;;;;;;;-141.02;100.00;53707.72;5111832;28;20702;-76
2024/01/05 04:11:37;;;;;;;11.10;10.80;;;;;;;-141.02;100.00;53834.81;5112829;28;20231;-76
2024/01/05 04:14:04;;;;;;;11.10;10.80;;;;;;;-141.02;100.00;53780.88;5115380;28;20239;-76
2024/01/05 04:16:32;;;;;;;10.80;10.50;;;;;;;-141.02;100.00;53757.78;5115492;28;20189;-76
2024/01/05 04:18:58;;;;;;;11.70;11.30;;;;;;;-141.02;100.00;53942.69;5115451;27;20684;-76
2024/01/05 04:21:25;;;;;;;11.70;11.30;;;;;;;-141.02;100.00;52985.56;5115694;28;20193;-78
2024/01/05 04:23:56;;;;;;;11.77;11.37;;;;;;;-141.02;100.00;52793.00;5115271;28;20666;-77
2024/01/05 04:26:23;;;;;;;11.90;11.50;;;;;;;-141.02;100.00;51358.88;5115665;28;20189;-78
2024/01/05 04:28:50;;;;;;;11.43;11.03;;;;;;;-141.02;100.00;49919.56;5115208;28;20237;-78
2024/01/05 04:31:17;;;;;;;10.80;10.50;;;;;;;-141.02;100.00;50054.25;5115553;28;20273;-78
2024/01/05 04:33:44;;;;;;;10.60;10.30;;;;;;;-141.02;100.00;50036.94;5115469;28;20217;-78
2024/01/05 04:36:12;;;;;;;10.80;10.50;;;;;;;-141.02;100.00;49631.00;5115422;28;20276;-79
2024/01/05 04:38:39;;;;;;;10.27;9.97;;;;;;;-141.02;100.00;48988.59;5115358;28;20304;-79
2024/01/05 04:41:07;;;;;;;10.07;9.77;;;;;;;-141.02;100.00;49950.34;5115025;28;20193;-79
2024/01/05 04:43:34;;;;;;;9.53;9.23;;;;;;;-141.02;100.00;50406.31;5114981;28;20203;-80
2024/01/05 04:46:01;;;;;;;9.60;9.30;;;;;;;-141.02;100.00;51547.50;5115238;28;20629;-80
2024/01/05 04:48:29;;;;;;;9.60;9.30;;;;;;;-141.02;100.00;52213.50;5115120;28;20315;-80
2024/01/05 04:50:56;;;;;;;9.50;9.20;;;;;;;-141.02;100.00;51247.25;5115102;28;20204;-80
2024/01/05 04:53:23;;;;;;;9.40;9.10;;;;;;;-141.02;100.00;50637.22;5114696;28;20189;-80
2024/01/05 04:55:50;;;;;;;9.20;8.90;;;;;;;-141.02;100.00;50643.00;5115048;28;20203;-80
2024/01/05 04:58:18;;;;;;;8.40;8.20;;;;;;;-141.02;100.00;50879.69;5114982;28;20201;-79
2024/01/05 05:00:45;;;;;;;8.40;8.20;;;;;;;-141.02;100.00;51491.66;5114925;28;20189;-80
2024/01/05 05:03:13;;;;;;;8.23;8.03;;;;;;;-141.02;100.00;52604.31;5114583;28;20232;-81
2024/01/05 05:05:40;;;;;;;8.23;8.03;;;;;;;-141.02;100.00;53680.75;5114774;28;20262;-81
2024/01/05 05:08:10;;;;;;;8.10;7.90;;;;;;;-141.02;100.00;54670.81;5114472;28;20787;-81
2024/01/05 05:10:37;;;;;;;8.40;8.20;;;;;;;-141.02;100.00;56019.63;5114443;28;20197;-80
2024/01/05 05:13:05;;;;;;;8.50;8.30;;;;;;;-141.02;100.00;56019.63;5114596;28;20724;-81
2024/01/05 05:15:33;;;;;;;7.90;7.70;;;;;;;-141.02;100.00;57253.28;5114095;28;20235;-81
2024/01/05 05:18:00;;;;;;;7.60;7.40;;;;;;;-141.02;100.00;58240.56;5114331;28;20284;-81
2024/01/05 05:20:27;;;;;;;8.00;7.80;;;;;;;-141.02;100.00;57253.28;5114305;28;20582;-81
2024/01/05 05:22:54;;;;;;;7.27;7.07;;;;;;;-141.02;100.00;57006.53;5114547;28;20257;-81
2024/01/05 05:25:21;;;;;;;7.10;6.90;;;;;;;-141.02;100.00;57006.53;5114121;28;20232;-81
2024/01/05 05:27:48;;;;;;;7.57;7.37;;;;;;;-141.02;100.00;57746.88;5113983;28;20193;-81
2024/01/05 05:30:16;;;;;;;7.00;6.80;;;;;;;-141.02;100.00;58981.19;5114354;28;20193;-81
2024/01/05 05:32:44;;;;;;;7.20;7.00;;;;;;;-141.02;100.00;58981.19;5114217;28;20193;-82
2024/01/05 05:35:11;;;;;;;6.80;6.60;;;;;;;-141.02;100.00;59228.09;5113953;28;20682;-81
2024/01/05 05:37:38;;;;;;;7.07;6.87;;;;;;;-141.02;100.00;59721.97;5114284;28;20319;-82
2024/01/05 05:40:06;;;;;;;7.30;7.10;;;;;;;-141.02;100.00;60462.94;5114195;28;20275;-77
2024/01/05 05:42:33;;;;;;;7.43;7.23;;;;;;;-141.02;100.00;60215.94;5113903;28;20205;-81
2024/01/05 05:45:00;;;;;;;7.20;7.00;;;;;;;-141.02;100.00;59968.94;5114015;28;20193;-81
2024/01/05 05:47:27;;;;;;;7.20;7.00;;;;;;;-141.02;100.00;59721.97;5113716;28;20650;-81
2024/01/05 05:49:56;;;;;;;8.00;7.80;;;;;;;-141.02;100.00;60215.94;5113860;28;20315;-81
2024/01/05 05:52:23;;;;;;;7.50;7.30;;;;;;;-141.02;100.00;59721.97;5113625;28;20288;-81
2024/01/05 05:54:50;;;;;;;7.87;7.67;;;;;;;-141.02;100.00;59721.97;5113861;28;20196;-81
2024/01/05 05:57:17;;;;;;;7.90;7.70;;;;;;;-141.02;100.00;59475.03;5113834;28;20209;-81
2024/01/05 05:59:44;;;;;;;8.00;7.80;;;;;;;-141.02;100.00;59968.94;5113803;28;20276;-80
2024/01/05 06:02:11;;;;;;;8.40;8.20;;;;;;;-141.02;100.00;60215.94;5113412;28;20197;-81
2024/01/05 06:04:38;;;;;;;8.77;8.57;;;;;;;-141.02;100.00;61698.22;5113369;28;20742;-81
2024/01/05 06:07:07;;;;;;;8.70;8.50;;;;;;;-141.02;100.00;61945.31;5113600;28;20193;-81
2024/01/05 06:09:34;;;;;;;8.40;8.20;;;;;;;-141.02;100.00;61451.13;5113545;28;20267;-81
2024/01/05 06:12:01;;;;;;;8.53;8.33;;;;;;;-141.02;100.00;62192.44;5113309;28;20283;-81
2024/01/05 06:14:28;;;;;;;8.43;8.23;;;;;;;-141.02;100.00;61204.03;5112971;28;20673;-81
2024/01/05 06:16:55;;;;;;;9.37;9.10;;;;;;;-141.02;100.00;60709.94;5113261;28;20716;-82
2024/01/05 06:19:22;;;;;;;9.20;9.00;;;;;;;-141.02;100.00;61204.03;5113146;28;20193;-80
2024/01/05 06:21:49;;;;;;;8.20;8.00;;;;;;;-141.02;100.00;64417.41;5113076;28;20724;-81
2024/01/05 06:24:17;;;;;;;8.13;7.93;;;;;;;-141.02;100.00;64664.72;5113370;28;20197;-80
2024/01/05 06:26:44;;;;;;;7.80;7.60;;;;;;;-141.02;100.00;63181.16;5112975;28;20669;-79
2024/01/05 06:29:11;;;;;;;9.63;9.33;;;;;;;-141.02;100.00;62192.44;5112914;28;20225;-81
2024/01/05 06:31:38;;;;;;;10.97;10.67;;;;;;;-141.02;100.00;62439.59;5113199;28;20199;-81
2024/01/05 06:34:05;;;;;;;11.70;11.37;;;;;;;-141.02;100.00;62933.94;5112821;28;20251;-81
2024/01/05 06:36:32;;;;;;;9.70;9.40;;;;;;;-141.02;100.00;63181.16;5113105;28;20193;-81
2024/01/05 06:38:59;;;;;;;10.83;10.53;;;;;;;-141.02;100.00;63675.59;5113042;28;20303;-81
2024/01/05 06:41:28;;;;;;;10.63;10.33;;;;;;;-141.02;100.00;64664.72;5113082;28;20199;-80
2024/01/05 06:43:55;;;;;;;10.53;10.23;;;;;;;-141.02;100.00;66148.94;5112967;28;20197;-80
2024/01/05 06:46:22;;;;;;;8.30;8.10;;;;;;;-141.02;100.00;66891.31;5112699;28;20577;-81
2024/01/05 06:48:48;;;;;;;10.00;9.70;;;;;;;-141.02;100.00;67633.81;5112577;28;20225;-81
2024/01/05 06:51:15;;;;;;;8.93;8.73;;;;;;;-141.02;100.00;68624.09;5112580;28;20189;-81
2024/01/05 06:53:42;;;;;;;9.80;9.50;;;;;;;-141.02;100.00;69862.34;5112938;28;20232;-81
2024/01/05 06:56:10;;;;;;;9.43;9.13;;;;;;;-141.02;100.00;70110.03;5113377;28;20247;-81
2024/01/05 06:58:39;;;;;;;9.20;8.90;;;;;;;-141.02;100.00;70853.25;5112829;28;20193;-80
2024/01/05 07:01:06;;;;;;;9.80;9.50;;;;;;;-141.02;100.00;70110.03;5112801;28;20276;-80
2024/01/05 07:03:32;;;;;;;10.93;10.63;;;;;;;-141.02;100.00;69862.34;5112807;28;20194;-80
2024/01/05 07:05:59;;;;;;;10.00;9.70;;;;;;;-141.02;100.00;69366.97;5112775;28;20219;-81
2024/01/05 07:08:26;;;;;;;11.17;10.77;;;;;;;-141.02;100.00;68128.91;5112306;28;20229;-81
2024/01/05 07:10:53;;;;;;;12.00;11.60;;;;;;;-141.02;100.00;68128.91;5112443;28;20283;-81
2024/01/05 07:13:20;;;;;;;12.00;11.60;;;;;;;-141.02;100.00;67633.81;5112344;28;20560;-79
2024/01/05 07:15:48;;;;;;;13.07;12.57;;;;;;;-141.02;100.00;65901.53;5112172;28;20307;-82
2024/01/05 07:18:15;;;;;;;14.27;13.67;;;;;;;-141.02;100.00;62686.75;5112331;28;20659;-80
2024/01/05 07:20:42;;;;;;;14.63;13.93;;;;;;;-141.02;100.00;62192.44;5112241;28;20663;-81
2024/01/05 07:23:09;;;;;;;14.80;14.10;;;;;;;-141.02;100.00;62439.59;5112336;28;20671;-81
2024/01/05 07:25:36;;;;;;;15.60;14.80;;;;;;;-141.02;100.00;61451.13;5112305;28;20658;-80
2024/01/05 07:28:03;;;;;;;16.30;15.40;;;;;;;-141.02;100.00;58487.41;5112179;28;20243;-81
2024/01/05 07:30:30;;;;;;;16.50;15.60;;;;;;;-141.02;100.00;59475.03;5112141;28;20686;-81
2024/01/05 07:32:59;;;;;;;17.77;16.77;;;;;;;-141.02;100.00;55013.75;5112492;28;20276;-81
2024/01/05 07:35:26;;;;;;;18.10;17.10;;;;;;;-141.02;100.00;52477.25;5112542;28;20272;-81
2024/01/05 07:37:53;;;;;;;18.23;17.23;;;;;;;-141.02;100.00;50550.63;5112388;28;20276;-81
2024/01/05 07:40:20;;;;;;;16.87;16.07;;;;;;;-141.02;100.00;49854.16;5112149;28;20197;-80
2024/01/05 07:42:47;;;;;;;16.20;15.40;;;;;;;-141.02;100.00;50460.19;5112371;28;20189;-81
2024/01/05 07:45:14;;;;;;;15.20;14.50;;;;;;;-141.02;100.00;50608.34;5112459;28;20246;-81
2024/01/05 07:47:41;;;;;;;15.80;15.10;;;;;;;-141.02;100.00;49779.13;5114869;28;20189;-80
2024/01/05 07:50:11;;;;;;;15.00;14.40;;;;;;;-141.02;100.00;49134.75;5116216;28;20268;-81
2024/01/05 07:52:38;;;;;;;15.10;14.50;;;;;;;-141.02;100.00;48684.72;5115990;28;20239;-81
2024/01/05 07:55:06;;;;;;;14.70;14.10;;;;;;;-141.02;100.00;49227.06;5116204;28;20570;-80
2024/01/05 07:57:32;;;;;;;14.10;13.50;;;;;;;-141.02;100.00;50477.50;5116127;28;20229;-81
2024/01/05 08:00:00;;;;;;;14.30;13.60;;;;;;;-141.02;100.00;50369.78;5115888;28;20228;-81
2024/01/05 08:02:27;;;;;;;14.50;13.80;;;;;;;-141.02;100.00;51251.09;5116172;28;20661;-81
2024/01/05 08:04:54;;;;;;;14.07;13.47;;;;;;;-141.02;100.00;51339.63;5115889;28;20205;-79
2024/01/05 08:07:22;;;;;;;14.80;14.10;;;;;;;-141.02;100.00;51335.78;5115704;28;20219;-80
2024/01/05 08:09:52;;;;;;;16.10;15.30;;;;;;;-141.02;100.00;51435.84;5115870;28;20225;-79
2024/01/05 08:12:20;;;;;;;17.30;16.30;;;;;;;-141.02;100.00;51774.63;5116145;28;20272;-80
2024/01/05 08:14:47;;;;;;;17.73;16.63;;;;;;;-141.02;100.00;51666.81;5115560;28;20282;-79
2024/01/05 08:17:14;;;;;;;18.97;17.67;;;;;;;-141.02;100.00;51062.50;5115877;28;20203;-79
2024/01/05 08:19:41;;;;;;;20.30;18.90;;;;;;;-141.02;100.00;49007.81;5115446;28;20237;-79
2024/01/05 08:22:08;;;;;;;22.27;20.80;;;;;;;-141.02;100.00;48590.50;5115427;28;20280;-79
2024/01/05 08:24:38;;;;;;;23.58;21.98;;;;;;;-141.02;100.00;47592.59;5115360;28;20284;-78
2024/01/05 08:27:05;;;;;;;26.87;25.07;;;;;;;-141.02;100.00;46677.63;5115871;28;20189;-78
2024/01/05 08:29:34;;;;;;;20.48;19.08;;;;;;;-141.02;100.00;45953.13;5115499;28;20220;-77
2024/01/05 08:32:02;;;;;;;23.77;22.27;;;;;;;-141.02;100.00;45935.84;5115254;28;20642;-78
2024/01/05 08:34:30;;;;;;;24.00;22.50;;;;;;;-141.02;100.00;45555.41;5115239;28;20716;-77
2024/01/05 08:36:57;;;;;;;19.97;18.57;;;;;;;-141.02;100.00;45563.09;5115118;28;20284;-77
2024/01/05 08:39:23;;;;;;;20.50;19.00;;;;;;;-141.02;100.00;45324.84;5115422;28;20620;-76
2024/01/05 08:41:52;;;;;;;23.20;21.70;;;;;;;-141.02;100.00;46016.53;5115041;28;20196;-77
2024/01/05 08:44:20;;;;;;;25.63;23.83;;;;;;;-141.02;100.00;45150.03;5115395;28;20364;-77
2024/01/05 08:46:47;;;;;;;20.17;18.77;;;;;;;-141.02;100.00;45515.06;5114962;28;20690;-77
2024/01/05 08:49:14;;;;;;;20.85;19.17;;;;;;;-141.02;100.00;45743.69;5114842;28;20328;-77
2024/01/05 08:51:42;;;;;;;25.23;23.53;;;;;;;-141.02;100.00;45445.88;5115141;28;20284;-77
2024/01/05 08:54:09;;;;;;;25.33;23.63;;;;;;;-141.02;100.00;45689.91;5115100;28;20246;-76
2024/01/05 08:56:36;;;;;;;22.10;20.30;;;;;;;-141.02;99.01;45321.00;5114803;28;20592;-76
2024/01/05 08:59:05;;;;;;;21.50;19.70;;;;;;;-141.02;94.33;44762.00;5114338;28;20228;-76
2024/01/05 09:01:33;;;;;;;27.52;25.45;;;;;;;-141.02;97.13;45186.53;5115173;28;20193;-76
2024/01/05 09:04:00;;;;;;;28.63;26.35;;;;;;;-141.02;89.91;44448.91;5115603;28;20189;-75
2024/01/05 09:06:28;;;;;;;23.00;21.10;;;;;;;-141.02;94.93;45109.69;5114557;28;20232;-75
2024/01/05 09:08:55;;;;;;;22.42;20.48;;;;;;;-141.02;89.20;44813.84;5114800;28;20285;-75
2024/01/05 09:11:22;;;;;;;27.77;25.57;;;;;;;-141.02;91.04;45113.53;5114824;28;20293;-75
2024/01/05 09:13:49;;;;;;;27.42;25.23;;;;;;;-141.02;89.96;44865.72;5114177;28;20672;-75
2024/01/05 09:16:17;;;;;;;22.65;20.75;;;;;;;-141.02;91.94;44794.66;5114442;28;20185;-75
2024/01/05 09:18:44;;;;;;;24.40;22.30;;;;;;;-141.02;90.86;44740.88;5114360;28;20284;-75
2024/01/05 09:21:12;;;;;;;27.50;25.40;;;;;;;-141.02;92.95;44971.38;5114297;28;20233;-75
2024/01/05 09:23:40;;;;;;;29.15;26.85;;;;;;;-141.02;88.86;44898.38;5114518;28;20205;-74
2024/01/05 09:26:13;;;;;;;23.20;21.20;;;;;;;-141.02;91.84;45221.09;5114607;28;20272;-74
2024/01/05 09:28:40;;;;;;;30.08;27.67;;;;;;;-141.02;90.89;45163.47;5114163;28;20276;-74
2024/01/05 09:31:07;;;;;;;26.15;24.15;;;;;;;-141.02;100.00;46239.44;5114016;28;20692;-75
2024/01/05 09:33:35;;;;;;;19.38;17.92;;;;;;;-141.02;100.00;46320.16;5114552;28;20203;-74
2024/01/05 09:36:03;;;;;;;20.02;18.52;;;;;;;-141.02;100.00;46900.56;5113972;28;20288;-74
2024/01/05 09:38:30;;;;;;;21.17;19.48;;;;;;;-141.02;100.00;46412.41;5114220;28;20197;-74
2024/01/05 09:40:57;;;;;;;27.52;25.42;;;;;;;-141.02;100.00;46919.78;5114393;28;20276;-74
2024/01/05 09:43:24;;;;;;;25.70;23.90;;;;;;;-141.02;100.00;48038.63;5114155;28;20288;-74
2024/01/05 09:45:52;;;;;;;19.27;17.88;;;;;;;-141.02;100.00;48192.44;5113838;27;20200;-74
2024/01/05 09:48:20;;;;;;;20.70;19.00;;;;;;;-141.02;100.00;47955.97;5114001;28;20266;-74
2024/01/05 09:50:51;;;;;;;25.83;24.02;;;;;;;-141.02;100.00;48077.09;5113934;28;20273;-74
2024/01/05 09:53:19;;;;;;;25.08;23.38;;;;;;;-141.02;100.00;47904.03;5113829;28;20725;-74
2024/01/05 09:55:48;;;;;;;19.20;17.80;;;;;;;-141.02;100.00;47492.63;5113869;28;20212;-73
2024/01/05 09:58:18;;;;;;;19.10;17.80;;;;;;;-141.02;100.00;47238.88;5113794;28;20690;-74
2024/01/05 10:00:50;;;;;;;23.17;21.67;;;;;;;-141.02;100.00;46971.69;5113508;28;20236;-74
2024/01/05 10:03:21;;;;;;;24.33;22.83;;;;;;;-141.02;100.00;46789.09;5113745;28;20189;-74
2024/01/05 10:05:48;;;;;;;18.58;17.27;;;;;;;-141.02;100.00;46981.31;5113426;28;20670;-74
2024/01/05 10:08:18;;;;;;;17.88;16.63;;;;;;;-141.02;100.00;46939.03;5113592;28;20273;-74
2024/01/05 10:10:49;;;;;;;25.77;24.13;;;;;;;-141.02;100.00;47215.81;5112824;28;20228;-74
2024/01/05 10:13:16;;;;;;;24.92;23.33;;;;;;;-141.02;100.00;47065.88;5113195;28;20203;-74
2024/01/05 10:15:54;;;;;;;18.10;16.80;;;;;;;-141.02;100.00;46921.72;5113360;28;20312;-74
2024/01/05 10:18:22;;;;;;;18.70;17.30;;;;;;;-141.02;100.00;47208.13;5113133;28;20670;-74
2024/01/05 10:20:49;;;;;;;19.27;17.77;;;;;;;-141.02;100.00;47319.63;5113112;28;20237;-74
2024/01/05 10:23:18;;;;;;;18.85;17.40;;;;;;;-141.02;100.00;47384.97;5113334;28;20205;-74
2024/01/05 10:25:47;;;;;;;25.70;23.90;;;;;;;-141.02;100.00;47138.91;5113010;28;20204;-74
2024/01/05 10:28:32;;;;;;;19.10;17.70;;;;;;;-141.02;100.00;47123.53;5112968;28;20673;-74
2024/01/05 10:31:13;;;;;;;18.77;17.38;;;;;;;-141.02;100.00;47423.41;5113148;28;20323;-74
2024/01/05 10:33:50;;;;;;;18.85;17.45;;;;;;;-141.02;100.00;47696.41;5113152;28;20567;-74
2024/01/05 10:36:20;;;;;;;20.35;18.75;;;;;;;-141.02;100.00;47907.88;5113104;28;20203;-74
2024/01/05 10:38:49;;;;;;;21.10;19.40;;;;;;;-141.02;100.00;47300.38;5113519;28;20185;-74
2024/01/05 10:41:17;;;;;;;19.55;18.05;;;;;;;-141.02;100.00;47967.50;5113081;28;20205;-74
2024/01/05 10:43:44;;;;;;;30.52;28.33;;;;;;;-141.02;100.00;47823.28;5113014;28;20193;-73
2024/01/05 10:46:14;;;;;;;20.60;18.92;;;;;;;-141.02;100.00;48373.19;5113228;28;20284;-73
2024/01/05 10:48:41;;;;;;;20.70;19.00;;;;;;;-141.02;100.00;47969.41;5112673;28;20200;-74
2024/01/05 10:51:08;;;;;;;21.30;19.50;;;;;;;-141.02;100.00;47427.25;5112815;28;20260;-74
2024/01/05 10:53:36;;;;;;;21.73;19.92;;;;;;;-141.02;100.00;46650.72;5112945;28;20193;-73
2024/01/05 10:56:08;;;;;;;20.25;18.65;;;;;;;-141.02;100.00;46827.53;5112523;28;20199;-74
2024/01/05 10:58:35;;;;;;;19.65;18.08;;;;;;;-141.02;100.00;46226.00;5112886;28;20190;-74
2024/01/05 11:01:02;;;;;;;28.42;26.42;;;;;;;-141.02;100.00;46152.97;5112786;28;20200;-74